Notre Dame — FHST — position and weather

sailwx.info

Track history (hours):
 
Tides and Currents Weather Stations Pressure Air Temp Water Temp Dewpoint Dewpoint Depression Visibility Wind Speed Wind Dir Waves Ship Positions

Notre Dame

Last reported at 2017-Sep-26 10:27 UTC. Time now 2017-Sep-26 10:50 UTC.
Position N 47°50' W 005°23'.

Length 24 m; draft 3.4 m.

Type: Fishing. MMSI: 227820000.

Date/timePositionNaut miles runAvg speedWind from/ knotsBaromVisibWave heightAir tempDewpointWater temp
2017-Sep-26 10:27N 47°50' W 005°23'1 2.1
2017-Sep-26 10:00N 47°50' W 005°21'1 1.8
2017-Sep-26 09:30N 47°50' W 005°20'1 2.3
2017-Sep-26 09:01N 47°50' W 005°18'2 3.2
2017-Sep-26 08:31N 47°50' W 005°16'1 2.8
2017-Sep-26 07:59N 47°50' W 005°18'1 2.2
2017-Sep-26 07:30N 47°50' W 005°16'3 5.3
2017-Sep-26 06:55N 47°52' W 005°20'2 2.1
2017-Sep-26 05:59N 47°50' W 005°21'1 2.3
2017-Sep-26 05:29N 47°50' W 005°19'1 1.3
2017-Sep-26 05:00N 47°49' W 005°20'1 2.3
2017-Sep-26 04:30N 47°49' W 005°18'1 2.1
2017-Sep-26 04:00N 47°49' W 005°16'1 2.5
2017-Sep-26 03:30N 47°49' W 005°15'2 3.8
2017-Sep-26 02:59N 47°49' W 005°17'1 2.2
2017-Sep-26 02:30N 47°49' W 005°19'1 2.9
2017-Sep-26 02:00N 47°48' W 005°17'1 2.6
2017-Sep-26 01:30N 47°47' W 005°19'1 2.2
2017-Sep-26 01:00N 47°47' W 005°21'1 2.5
2017-Sep-26 00:30N 47°47' W 005°19'1 2.3
2017-Sep-26 00:00N 47°48' W 005°17'0 1.0
2017-Sep-25 23:30N 47°48' W 005°17'1 2.4
2017-Sep-25 23:00N 47°47' W 005°18'1 2.4
2017-Sep-25 22:27N 47°47' W 005°20'1 1.1
2017-Sep-25 21:57N 47°47' W 005°21'1 2.3
2017-Sep-25 21:30N 47°47' W 005°19'1 1.9
2017-Sep-25 20:59N 47°47' W 005°21'1 2.1
2017-Sep-25 20:30N 47°48' W 005°19'1 2.0
2017-Sep-25 19:58N 47°48' W 005°18'0 0.8
2017-Sep-25 19:31N 47°48' W 005°17'0 0.8
2017-Sep-25 19:01N 47°48' W 005°17'0 0.6
2017-Sep-25 18:30N 47°48' W 005°17'2 3.1
2017-Sep-25 17:48N 47°48' W 005°20'1 2.1
2017-Sep-25 17:29N 47°47' W 005°20'1 1.8
2017-Sep-25 16:55N 47°47' W 005°18'1 2.0
2017-Sep-25 16:29N 47°48' W 005°17'1 2.3
2017-Sep-25 15:59N 47°48' W 005°15'1 2.2
2017-Sep-25 15:29N 47°49' W 005°14'1 2.1
2017-Sep-25 15:00N 47°50' W 005°14'1 2.3
2017-Sep-25 14:25N 47°51' W 005°13'0 1.0
2017-Sep-25 14:00N 47°51' W 005°13'1 2.0
2017-Sep-25 13:30N 47°51' W 005°15'1 2.0
2017-Sep-25 12:52N 47°51' W 005°17'2 5.7
2017-Sep-25 12:30N 47°51' W 005°20'2 3.4
2017-Sep-25 12:00N 47°51' W 005°22'3 4.6
2017-Sep-25 11:27N 47°50' W 005°19'4 7.8
2017-Sep-25 10:59N 47°50' W 005°24'1 2.3
2017-Sep-25 10:28N 47°50' W 005°22'0 0.8
2017-Sep-25 10:00N 47°50' W 005°23'3 5.7
2017-Sep-25 09:27N 47°50' W 005°18'2 5.2
2017-Sep-25 09:00N 47°49' W 005°15'3 3.2
2017-Sep-25 08:12N 47°49' W 005°18'1 1.3
2017-Sep-25 07:17N 47°48' W 005°17'1 2.8
2017-Sep-25 07:00N 47°47' W 005°16'2 2.8
2017-Sep-25 06:27N 47°47' W 005°14'1 2.8
2017-Sep-25 05:58N 47°46' W 005°12'3 3.7
2017-Sep-25 05:02N 47°47' W 005°17'0 3.2
2017-Sep-25 05:00N 47°47' W 005°17'3 3.0
2017-Sep-25 04:08N 47°47' W 005°21'0 3.6
2017-Sep-25 03:59N 47°47' W 005°21'2 2.5
2017-Sep-25 03:20N 47°46' W 005°19'1 3.2
2017-Sep-25 03:00N 47°46' W 005°18'2 3.1
2017-Sep-25 02:23N 47°46' W 005°15'2 3.2
2017-Sep-25 01:50N 47°46' W 005°12'2 6.1
2017-Sep-25 01:30N 47°46' W 005°09'4 7.3
2017-Sep-25 01:00N 47°46' W 005°04'4 7.3
2017-Sep-25 00:30N 47°46' W 004°59'4 7.3
2017-Sep-25 00:00N 47°46' W 004°53'4 7.2
2017-Sep-24 23:30N 47°46' W 004°48'4 7.5
2017-Sep-24 22:57N 47°45' W 004°42'3 7.4
2017-Sep-24 22:30N 47°45' W 004°37'13 7.3
2017-Sep-24 20:43N 47°45' W 004°17'6 6.8
2017-Sep-24 19:48N 47°47' W 004°09'3 0.2
2017-Sep-24 05:29N 47°50' W 004°10'0 0.0
2017-Sep-24 03:44N 47°50' W 004°10'0 0.0
2017-Sep-24 03:22N 47°50' W 004°10'0 0.0
2017-Sep-24 02:33N 47°50' W 004°10'0 0.0
2017-Sep-24 02:23N 47°50' W 004°10'0 0.0
2017-Sep-24 01:59N 47°50' W 004°10'0 0.0
2017-Sep-23 22:25N 47°50' W 004°10'0 0.0
2017-Sep-23 21:50N 47°50' W 004°10'0 0.0
2017-Sep-23 21:24N 47°50' W 004°10'0 0.0
2017-Sep-23 20:51N 47°50' W 004°10'  
2017-Sep-21 07:48N 47°50' W 004°10'  
2017-Sep-18 15:58N 47°50' W 004°10'0 0.0
2017-Sep-18 14:03N 47°50' W 004°10'0 0.0
2017-Sep-18 13:34N 47°50' W 004°10'0 1.4
2017-Sep-18 13:27N 47°50' W 004°10'4 7.6
2017-Sep-18 12:58N 47°47' W 004°10'22 9.8
2017-Sep-18 10:41N 47°52' W 004°42'2 9.5
2017-Sep-18 10:30N 47°53' W 004°44'4 9.1
2017-Sep-18 10:00N 47°55' W 004°50'4 8.9
2017-Sep-18 09:30N 47°57' W 004°56'5 9.3
2017-Sep-18 09:01N 47°59' W 005°03'10 9.3
2017-Sep-18 07:59N 48°03' W 005°16'2 1.9
2017-Sep-18 06:53N 48°02' W 005°19'2 1.7
2017-Sep-18 05:59N 48°02' W 005°21'1 0.7
2017-Sep-18 04:48N 48°02' W 005°22'1 1.4
2017-Sep-18 03:53N 48°02' W 005°20'2 1.7
2017-Sep-18 02:48N 48°02' W 005°23'3 3.0
2017-Sep-18 01:43N 48°03' W 005°28'1 1.7
2017-Sep-18 00:58N 48°03' W 005°30'1 0.7
2017-Sep-17 23:58N 48°02' W 005°30'2 2.2
2017-Sep-17 22:53N 48°02' W 005°26'2 1.1
2017-Sep-17 20:59N 48°01' W 005°29'10 1.4
2017-Sep-17 13:58N 48°02' W 005°14'1 1.0
2017-Sep-17 12:59N 48°03' W 005°15'8 7.1
2017-Sep-17 11:48N 48°01' W 005°27'1 1.7
2017-Sep-17 10:58N 48°02' W 005°29'2 2.0
2017-Sep-17 09:53N 48°02' W 005°26'5 4.8
2017-Sep-17 08:53N 48°03' W 005°19'4 4.2
2017-Sep-17 07:53N 48°01' W 005°25'1 0.8
2017-Sep-17 06:59N 48°01' W 005°25'4 3.4
2017-Sep-17 05:43N 48°03' W 005°30'3 3.9
2017-Sep-17 04:58N 48°02' W 005°26'2 2.3
2017-Sep-17 03:53N 48°00' W 005°30'1 0.7
2017-Sep-17 02:53N 47°60' W 005°29'2 2.1
2017-Sep-17 01:58N 47°60' W 005°26'2 1.8
2017-Sep-17 00:58N 47°60' W 005°24'1 0.7
2017-Sep-16 23:44N 48°00' W 005°25'3 2.2
2017-Sep-16 22:33N 47°58' W 005°23'1 2.0
2017-Sep-16 21:53N 47°59' W 005°23'0 0.1
2017-Sep-16 19:58N 47°59' W 005°24'1 0.6
2017-Sep-16 17:53N 47°59' W 005°26'2 0.6
2017-Sep-16 13:48N 48°01' W 005°27'2 1.0
2017-Sep-16 11:33N 47°59' W 005°28'1 1.3
2017-Sep-16 10:53N 47°59' W 005°27'  
Track history (hours):
 
Tides and Currents Weather Stations Pressure Air Temp Water Temp Dewpoint Dewpoint Depression Visibility Wind Speed Wind Dir Waves Ship Positions

Notre Dame

Last reported at 2017-Sep-26 10:27 UTC. Time now 2017-Sep-26 10:50 UTC.
Position N 47°50' W 005°23'.

Length 24 m; draft 3.4 m.

Type: Fishing. MMSI: 227820000.

Date/timePositionNaut miles runAvg speedWind from/ knotsBaromVisibWave heightAir tempDewpointWater temp
2017-Sep-26 10:27N 47°50' W 005°23'1 2.1
2017-Sep-26 10:00N 47°50' W 005°21'1 1.8
2017-Sep-26 09:30N 47°50' W 005°20'1 2.3
2017-Sep-26 09:01N 47°50' W 005°18'2 3.2
2017-Sep-26 08:31N 47°50' W 005°16'1 2.8
2017-Sep-26 07:59N 47°50' W 005°18'1 2.2
2017-Sep-26 07:30N 47°50' W 005°16'3 5.3
2017-Sep-26 06:55N 47°52' W 005°20'2 2.1
2017-Sep-26 05:59N 47°50' W 005°21'1 2.3
2017-Sep-26 05:29N 47°50' W 005°19'1 1.3
2017-Sep-26 05:00N 47°49' W 005°20'1 2.3
2017-Sep-26 04:30N 47°49' W 005°18'1 2.1
2017-Sep-26 04:00N 47°49' W 005°16'1 2.5
2017-Sep-26 03:30N 47°49' W 005°15'2 3.8
2017-Sep-26 02:59N 47°49' W 005°17'1 2.2
2017-Sep-26 02:30N 47°49' W 005°19'1 2.9
2017-Sep-26 02:00N 47°48' W 005°17'1 2.6
2017-Sep-26 01:30N 47°47' W 005°19'1 2.2
2017-Sep-26 01:00N 47°47' W 005°21'1 2.5
2017-Sep-26 00:30N 47°47' W 005°19'1 2.3
2017-Sep-26 00:00N 47°48' W 005°17'0 1.0
2017-Sep-25 23:30N 47°48' W 005°17'1 2.4
2017-Sep-25 23:00N 47°47' W 005°18'1 2.4
2017-Sep-25 22:27N 47°47' W 005°20'1 1.1
2017-Sep-25 21:57N 47°47' W 005°21'1 2.3
2017-Sep-25 21:30N 47°47' W 005°19'1 1.9
2017-Sep-25 20:59N 47°47' W 005°21'1 2.1
2017-Sep-25 20:30N 47°48' W 005°19'1 2.0
2017-Sep-25 19:58N 47°48' W 005°18'0 0.8
2017-Sep-25 19:31N 47°48' W 005°17'0 0.8
2017-Sep-25 19:01N 47°48' W 005°17'0 0.6
2017-Sep-25 18:30N 47°48' W 005°17'2 3.1
2017-Sep-25 17:48N 47°48' W 005°20'1 2.1
2017-Sep-25 17:29N 47°47' W 005°20'1 1.8
2017-Sep-25 16:55N 47°47' W 005°18'1 2.0
2017-Sep-25 16:29N 47°48' W 005°17'1 2.3
2017-Sep-25 15:59N 47°48' W 005°15'1 2.2
2017-Sep-25 15:29N 47°49' W 005°14'1 2.1
2017-Sep-25 15:00N 47°50' W 005°14'1 2.3
2017-Sep-25 14:25N 47°51' W 005°13'0 1.0
2017-Sep-25 14:00N 47°51' W 005°13'1 2.0
2017-Sep-25 13:30N 47°51' W 005°15'1 2.0
2017-Sep-25 12:52N 47°51' W 005°17'2 5.7
2017-Sep-25 12:30N 47°51' W 005°20'2 3.4
2017-Sep-25 12:00N 47°51' W 005°22'3 4.6
2017-Sep-25 11:27N 47°50' W 005°19'4 7.8
2017-Sep-25 10:59N 47°50' W 005°24'1 2.3
2017-Sep-25 10:28N 47°50' W 005°22'0 0.8
2017-Sep-25 10:00N 47°50' W 005°23'3 5.7
2017-Sep-25 09:27N 47°50' W 005°18'2 5.2
2017-Sep-25 09:00N 47°49' W 005°15'3 3.2
2017-Sep-25 08:12N 47°49' W 005°18'1 1.3
2017-Sep-25 07:17N 47°48' W 005°17'1 2.8
2017-Sep-25 07:00N 47°47' W 005°16'2 2.8
2017-Sep-25 06:27N 47°47' W 005°14'1 2.8
2017-Sep-25 05:58N 47°46' W 005°12'3 3.7
2017-Sep-25 05:02N 47°47' W 005°17'0 3.2
2017-Sep-25 05:00N 47°47' W 005°17'3 3.0
2017-Sep-25 04:08N 47°47' W 005°21'0 3.6
2017-Sep-25 03:59N 47°47' W 005°21'2 2.5
2017-Sep-25 03:20N 47°46' W 005°19'1 3.2
2017-Sep-25 03:00N 47°46' W 005°18'2 3.1
2017-Sep-25 02:23N 47°46' W 005°15'2 3.2
2017-Sep-25 01:50N 47°46' W 005°12'2 6.1
2017-Sep-25 01:30N 47°46' W 005°09'4 7.3
2017-Sep-25 01:00N 47°46' W 005°04'4 7.3
2017-Sep-25 00:30N 47°46' W 004°59'4 7.3
2017-Sep-25 00:00N 47°46' W 004°53'4 7.2
2017-Sep-24 23:30N 47°46' W 004°48'4 7.5
2017-Sep-24 22:57N 47°45' W 004°42'3 7.4
2017-Sep-24 22:30N 47°45' W 004°37'13 7.3
2017-Sep-24 20:43N 47°45' W 004°17'6 6.8
2017-Sep-24 19:48N 47°47' W 004°09'3 0.2
2017-Sep-24 05:29N 47°50' W 004°10'0 0.0
2017-Sep-24 03:44N 47°50' W 004°10'0 0.0
2017-Sep-24 03:22N 47°50' W 004°10'0 0.0
2017-Sep-24 02:33N 47°50' W 004°10'0 0.0
2017-Sep-24 02:23N 47°50' W 004°10'0 0.0
2017-Sep-24 01:59N 47°50' W 004°10'0 0.0
2017-Sep-23 22:25N 47°50' W 004°10'0 0.0
2017-Sep-23 21:50N 47°50' W 004°10'0 0.0
2017-Sep-23 21:24N 47°50' W 004°10'0 0.0
2017-Sep-23 20:51N 47°50' W 004°10'  
2017-Sep-21 07:48N 47°50' W 004°10'  
2017-Sep-18 15:58N 47°50' W 004°10'0 0.0
2017-Sep-18 14:03N 47°50' W 004°10'0 0.0
2017-Sep-18 13:34N 47°50' W 004°10'0 1.4
2017-Sep-18 13:27N 47°50' W 004°10'4 7.6
2017-Sep-18 12:58N 47°47' W 004°10'22 9.8
2017-Sep-18 10:41N 47°52' W 004°42'2 9.5
2017-Sep-18 10:30N 47°53' W 004°44'4 9.1
2017-Sep-18 10:00N 47°55' W 004°50'4 8.9
2017-Sep-18 09:30N 47°57' W 004°56'5 9.3
2017-Sep-18 09:01N 47°59' W 005°03'10 9.3
2017-Sep-18 07:59N 48°03' W 005°16'2 1.9
2017-Sep-18 06:53N 48°02' W 005°19'2 1.7
2017-Sep-18 05:59N 48°02' W 005°21'1 0.7
2017-Sep-18 04:48N 48°02' W 005°22'1 1.4
2017-Sep-18 03:53N 48°02' W 005°20'2 1.7
2017-Sep-18 02:48N 48°02' W 005°23'3 3.0
2017-Sep-18 01:43N 48°03' W 005°28'1 1.7
2017-Sep-18 00:58N 48°03' W 005°30'1 0.7
2017-Sep-17 23:58N 48°02' W 005°30'2 2.2
2017-Sep-17 22:53N 48°02' W 005°26'2 1.1
2017-Sep-17 20:59N 48°01' W 005°29'10 1.4
2017-Sep-17 13:58N 48°02' W 005°14'1 1.0
2017-Sep-17 12:59N 48°03' W 005°15'8 7.1
2017-Sep-17 11:48N 48°01' W 005°27'1 1.7
2017-Sep-17 10:58N 48°02' W 005°29'2 2.0
2017-Sep-17 09:53N 48°02' W 005°26'5 4.8
2017-Sep-17 08:53N 48°03' W 005°19'4 4.2
2017-Sep-17 07:53N 48°01' W 005°25'1 0.8
2017-Sep-17 06:59N 48°01' W 005°25'4 3.4
2017-Sep-17 05:43N 48°03' W 005°30'3 3.9
2017-Sep-17 04:58N 48°02' W 005°26'2 2.3
2017-Sep-17 03:53N 48°00' W 005°30'1 0.7
2017-Sep-17 02:53N 47°60' W 005°29'2 2.1
2017-Sep-17 01:58N 47°60' W 005°26'2 1.8
2017-Sep-17 00:58N 47°60' W 005°24'1 0.7
2017-Sep-16 23:44N 48°00' W 005°25'3 2.2
2017-Sep-16 22:33N 47°58' W 005°23'1 2.0
2017-Sep-16 21:53N 47°59' W 005°23'0 0.1
2017-Sep-16 19:58N 47°59' W 005°24'1 0.6
2017-Sep-16 17:53N 47°59' W 005°26'2 0.6
2017-Sep-16 13:48N 48°01' W 005°27'2 1.0
2017-Sep-16 11:33N 47°59' W 005°28'1 1.3
2017-Sep-16 10:53N 47°59' W 005°27'  

Dump ship's entire track history